createdAt,value
2019-03-23T00:02:13.748Z,8.23
2019-03-23T00:07:17.028Z,5.63
2019-03-23T00:12:20.302Z,6.70
2019-03-23T00:17:23.664Z,7.73
2019-03-23T00:22:26.952Z,7.67
2019-03-23T00:27:30.340Z,6.37
2019-03-23T00:32:35.230Z,7.83
2019-03-23T00:37:40.856Z,8.07
2019-03-23T00:42:48.865Z,7.43
2019-03-23T00:47:52.489Z,6.93
2019-03-23T00:52:56.639Z,6.70
2019-03-23T00:58:00.301Z,9.63
2019-03-23T01:03:03.836Z,8.87
2019-03-23T01:08:07.365Z,7.63
2019-03-23T01:13:10.660Z,9.67
2019-03-23T01:18:15.635Z,9.30
2019-03-23T01:23:18.992Z,9.97
2019-03-23T01:28:24.513Z,12.90
2019-03-23T01:33:27.803Z,17.80
2019-03-23T01:38:31.158Z,23.63
2019-03-23T01:43:34.449Z,24.40
2019-03-23T01:48:37.752Z,32.10
2019-03-23T01:53:41.038Z,36.83
2019-03-23T01:58:44.569Z,41.27
2019-03-23T02:03:48.105Z,49.77
2019-03-23T02:08:51.638Z,59.63
2019-03-23T02:13:55.166Z,66.53
2019-03-23T02:18:58.711Z,67.73
2019-03-23T02:24:02.246Z,68.00
2019-03-23T02:29:05.890Z,65.53
2019-03-23T02:34:09.207Z,64.90
2019-03-23T02:39:12.743Z,63.07
2019-03-23T02:44:16.300Z,59.23
2019-03-23T02:49:19.563Z,63.40
2019-03-23T02:54:23.103Z,61.93
2019-03-23T02:59:26.651Z,67.77
2019-03-23T03:04:29.959Z,71.40
2019-03-23T03:09:33.484Z,67.80
2019-03-23T03:14:37.016Z,76.60
2019-03-23T03:19:40.295Z,77.77
2019-03-23T03:24:43.583Z,85.97
2019-03-23T03:29:47.109Z,89.30
2019-03-23T03:34:50.655Z,91.77
2019-03-23T03:39:54.181Z,91.37
2019-03-23T03:44:57.761Z,98.87
2019-03-23T03:50:01.068Z,100.20
2019-03-23T03:55:06.128Z,103.83
2019-03-23T04:00:10.431Z,101.93
2019-03-23T04:05:14.206Z,108.47
2019-03-23T04:10:17.488Z,107.00
2019-03-23T04:15:21.049Z,124.87
2019-03-23T04:20:24.601Z,119.20
2019-03-23T04:25:27.914Z,133.83
2019-03-23T04:30:31.443Z,147.97
2019-03-23T04:35:34.729Z,139.10
2019-03-23T04:40:38.183Z,142.03
2019-03-23T04:45:41.716Z,145.50
2019-03-23T04:50:45.247Z,152.10
2019-03-23T04:55:48.534Z,152.63
2019-03-23T05:00:51.817Z,150.20
2019-03-23T05:05:55.107Z,141.80
2019-03-23T05:10:58.645Z,142.23
2019-03-23T05:16:01.937Z,140.80
2019-03-23T05:21:05.234Z,140.07
2019-03-23T05:26:08.759Z,141.07
2019-03-23T05:31:12.280Z,144.77
2019-03-23T05:36:15.574Z,146.60
2019-03-23T05:41:19.151Z,151.07
2019-03-23T05:46:22.690Z,156.23
2019-03-23T05:51:25.978Z,154.47
2019-03-23T05:56:29.501Z,147.83
2019-03-23T06:01:32.804Z,138.13
2019-03-23T06:06:36.346Z,135.97
2019-03-23T06:11:39.876Z,125.90
2019-03-23T06:16:43.216Z,120.70
2019-03-23T06:21:46.506Z,117.97
2019-03-23T06:26:50.037Z,113.23
2019-03-23T06:31:53.577Z,122.53
2019-03-23T06:36:57.106Z,117.00
2019-03-23T06:42:00.391Z,114.17
2019-03-23T06:47:03.934Z,108.70
2019-03-23T06:52:07.222Z,109.63
2019-03-23T06:57:10.790Z,111.10
2019-03-23T07:02:14.333Z,104.60
2019-03-23T07:07:17.897Z,111.13
2019-03-23T07:12:21.144Z,113.93
2019-03-23T07:17:24.434Z,105.60
2019-03-23T07:22:27.967Z,111.53
2019-03-23T07:27:31.511Z,106.37
2019-03-23T07:32:34.789Z,115.60
2019-03-23T07:37:38.319Z,114.20
2019-03-23T07:42:41.943Z,106.40
2019-03-23T07:47:45.486Z,106.07
2019-03-23T07:52:48.997Z,105.57
2019-03-23T07:57:52.524Z,106.70
2019-03-23T08:02:56.733Z,101.43
2019-03-23T08:08:00.259Z,98.53
2019-03-23T08:13:03.794Z,93.70
2019-03-23T08:18:07.078Z,94.17
2019-03-23T08:23:10.351Z,88.67
2019-03-23T08:28:16.830Z,94.07
2019-03-23T08:33:23.105Z,90.87
2019-03-23T08:38:27.924Z,88.10
2019-03-23T08:43:31.211Z,77.27
2019-03-23T08:48:34.756Z,93.00
2019-03-23T08:53:40.268Z,86.60
2019-03-23T08:58:42.522Z,85.93
2019-03-23T09:03:52.343Z,84.73
2019-03-23T09:08:51.028Z,85.10
2019-03-23T09:13:54.397Z,80.00
2019-03-23T09:18:57.684Z,83.80
2019-03-23T09:24:01.219Z,81.33
2019-03-23T09:29:04.785Z,83.93
2019-03-23T09:34:08.322Z,81.83
2019-03-23T09:39:13.013Z,78.77
2019-03-23T09:44:16.554Z,81.73
2019-03-23T09:49:22.112Z,78.27
2019-03-23T09:54:28.954Z,79.03
2019-03-23T09:59:34.055Z,78.60
2019-03-23T10:04:37.611Z,79.53
2019-03-23T10:09:42.735Z,78.97
2019-03-23T10:14:46.035Z,80.97
2019-03-23T10:19:49.574Z,73.07
2019-03-23T10:24:53.110Z,75.20
2019-03-23T10:29:56.872Z,72.53
2019-03-23T10:35:00.474Z,82.23
2019-03-23T10:40:07.516Z,86.50
2019-03-23T10:45:11.828Z,82.33
2019-03-23T10:50:15.120Z,85.77
2019-03-23T10:55:19.948Z,81.37
2019-03-23T11:00:23.483Z,69.27
2019-03-23T11:05:27.016Z,61.07
2019-03-23T11:10:30.563Z,78.37
2019-03-23T11:15:34.101Z,78.43
2019-03-23T11:20:37.626Z,79.40
2019-03-23T11:25:41.609Z,58.73
2019-03-23T11:30:45.853Z,64.13
2019-03-23T11:35:57.810Z,67.57
2019-03-23T11:41:02.092Z,64.67
2019-03-23T11:46:05.454Z,61.47
2019-03-23T11:51:08.993Z,62.73
2019-03-23T11:56:12.320Z,62.10
2019-03-23T12:01:15.608Z,60.73
2019-03-23T12:06:19.148Z,63.53
2019-03-23T12:11:22.681Z,58.00
2019-03-23T12:16:25.969Z,55.47
2019-03-23T12:21:29.498Z,55.60
2019-03-23T12:26:33.050Z,55.40
2019-03-23T12:31:36.343Z,57.53
2019-03-23T12:36:39.631Z,51.23
2019-03-23T12:41:43.181Z,52.70
2019-03-23T12:46:48.535Z,51.27
2019-03-23T12:51:51.734Z,47.87
2019-03-23T12:56:55.267Z,46.93
2019-03-23T13:01:58.615Z,42.40
2019-03-23T13:07:02.707Z,46.63
2019-03-23T13:12:06.239Z,48.07
2019-03-23T13:17:09.533Z,43.67
2019-03-23T13:22:12.830Z,46.37
2019-03-23T13:27:16.127Z,43.97
2019-03-23T13:32:19.656Z,42.03
2019-03-23T13:37:22.952Z,44.57
2019-03-23T13:42:26.251Z,42.87
2019-03-23T13:47:29.802Z,45.03
2019-03-23T13:52:33.097Z,43.80
2019-03-23T13:57:36.638Z,43.10
2019-03-23T14:02:39.935Z,40.20
2019-03-23T14:07:43.515Z,39.30
2019-03-23T14:12:46.819Z,43.57
2019-03-23T14:17:50.998Z,37.37
2019-03-23T14:23:02.292Z,40.07
2019-03-23T14:27:59.821Z,38.70
2019-03-23T14:33:03.130Z,40.30
2019-03-23T14:38:06.424Z,42.13
2019-03-23T14:43:10.551Z,45.93
2019-03-23T14:48:13.837Z,49.07
2019-03-23T14:53:17.130Z,50.03
2019-03-23T14:58:20.663Z,46.87
2019-03-23T15:03:24.217Z,53.43
2019-03-23T15:08:27.794Z,56.10
2019-03-23T15:13:31.445Z,50.30
2019-03-23T15:18:34.760Z,57.77
2019-03-23T15:23:38.472Z,54.63
2019-03-23T15:28:42.023Z,53.53
2019-03-23T15:33:45.573Z,51.50
2019-03-23T15:38:48.864Z,52.03
2019-03-23T15:43:52.943Z,53.73
2019-03-23T15:48:56.971Z,50.87
2019-03-23T15:54:00.518Z,53.77
2019-03-23T15:59:04.928Z,54.53
2019-03-23T16:04:08.342Z,52.33
2019-03-23T16:09:11.697Z,56.10
2019-03-23T16:14:15.108Z,54.93
2019-03-23T16:19:18.413Z,57.53
2019-03-23T16:24:21.798Z,59.00
2019-03-23T16:29:25.364Z,56.13
2019-03-23T16:34:28.755Z,56.47
2019-03-23T16:39:32.066Z,51.93
2019-03-23T16:44:35.608Z,56.53
2019-03-23T16:49:39.172Z,54.73
2019-03-23T16:54:42.465Z,57.30
2019-03-23T16:59:46.592Z,52.77
2019-03-23T17:04:49.906Z,51.77
2019-03-23T17:09:53.197Z,50.57
2019-03-23T17:14:56.486Z,51.43
2019-03-23T17:20:01.112Z,52.40
2019-03-23T17:25:06.600Z,49.03
2019-03-23T17:30:10.067Z,54.77
2019-03-23T17:35:13.623Z,52.33
2019-03-23T17:40:16.909Z,52.27
2019-03-23T17:45:20.469Z,53.47
2019-03-23T17:50:24.024Z,50.67
2019-03-23T17:55:27.561Z,49.80
2019-03-23T18:00:31.683Z,50.30
2019-03-23T18:05:35.107Z,58.67
2019-03-23T18:10:38.422Z,57.43
2019-03-23T18:15:42.466Z,49.50
2019-03-23T18:20:45.794Z,57.60
2019-03-23T18:25:49.135Z,53.83
2019-03-23T18:30:52.447Z,48.97
2019-03-23T18:35:55.775Z,50.33
2019-03-23T18:40:59.051Z,46.50
2019-03-23T18:46:02.719Z,40.30
2019-03-23T18:51:06.274Z,36.83
2019-03-23T18:56:09.803Z,33.97
2019-03-23T19:01:13.336Z,30.80
2019-03-23T19:06:16.655Z,23.97
2019-03-23T19:11:20.214Z,26.33
2019-03-23T19:16:23.555Z,24.57
2019-03-23T19:21:27.117Z,23.67
2019-03-23T19:26:30.817Z,20.93
2019-03-23T19:31:34.116Z,23.23
2019-03-23T19:36:38.538Z,21.70
2019-03-23T19:41:41.829Z,22.67
2019-03-23T19:46:45.119Z,25.93
2019-03-23T19:51:48.676Z,27.47
2019-03-23T19:56:51.977Z,25.07
2019-03-23T20:01:55.511Z,28.27
2019-03-23T20:06:59.049Z,27.13
2019-03-23T20:12:02.642Z,31.87
2019-03-23T20:17:06.244Z,33.83
2019-03-23T20:22:11.792Z,32.03
2019-03-23T20:27:14.959Z,30.10
2019-03-23T20:32:18.255Z,28.30
2019-03-23T20:37:21.562Z,27.20
2019-03-23T20:42:26.068Z,29.10
2019-03-23T20:47:29.376Z,26.60
2019-03-23T20:52:32.938Z,28.07
2019-03-23T20:57:39.392Z,27.97
2019-03-23T21:02:42.686Z,27.50
2019-03-23T21:07:46.223Z,18.70
2019-03-23T21:12:49.513Z,15.53
2019-03-23T21:17:53.058Z,17.17
2019-03-23T21:22:56.613Z,13.73
2019-03-23T21:28:00.164Z,11.17
2019-03-23T21:33:03.539Z,9.53
2019-03-23T21:38:06.831Z,15.33
2019-03-23T21:43:10.461Z,12.30
2019-03-23T21:48:13.743Z,9.83
2019-03-23T21:53:17.035Z,9.17
2019-03-23T21:58:20.326Z,9.00
2019-03-23T22:03:23.700Z,10.33
2019-03-23T22:08:27.331Z,8.73
2019-03-23T22:13:30.605Z,10.30
2019-03-23T22:18:33.892Z,10.70
2019-03-23T22:23:37.503Z,8.53
2019-03-23T22:28:40.802Z,12.93
2019-03-23T22:33:44.167Z,9.53
2019-03-23T22:38:47.469Z,10.37
2019-03-23T22:43:51.087Z,11.53
2019-03-23T22:48:54.370Z,11.23
2019-03-23T22:53:57.892Z,10.70
2019-03-23T22:59:01.460Z,10.53
2019-03-23T23:04:05.004Z,11.10
2019-03-23T23:09:09.439Z,12.17
2019-03-23T23:14:16.317Z,12.70
2019-03-23T23:19:21.197Z,9.87
2019-03-23T23:24:24.710Z,8.83
2019-03-23T23:29:29.163Z,9.57
2019-03-23T23:34:34.118Z,12.67
2019-03-23T23:39:43.839Z,13.50
2019-03-23T23:44:51.809Z,11.43
2019-03-23T23:49:58.472Z,14.77
2019-03-23T23:55:02.085Z,10.20
